Time;durP1;ratioP1;P1;durP2;ratioP2;P2;SDS_P1;SDS_P2;PMS_P1;PMS_P2;Temp;Humidity;BMP_temperature;BMP_pressure;BME280_temperature;BME280_humidity;BME280_pressure;Samples;Min_cycle;Max_cycle;Signal;HPM_P1;HPM_P2
2022/03/26 00:02:12;;;;;;;14.10;7.80;;;9.60;99.90;;;;;;5011593;28;20172;-71
2022/03/26 00:04:37;;;;;;;10.30;8.17;;;9.60;99.90;;;;;;5011404;28;20260;-71
2022/03/26 00:07:03;;;;;;;15.57;8.93;;;9.50;99.90;;;;;;5011455;28;20180;-73
2022/03/26 00:09:29;;;;;;;13.13;7.83;;;9.40;99.90;;;;;;5011496;28;20305;-71
2022/03/26 00:11:54;;;;;;;10.37;9.30;;;9.40;99.90;;;;;;5011430;28;20180;-70
2022/03/26 00:14:20;;;;;;;11.60;7.13;;;9.40;99.90;;;;;;5011362;28;20327;-70
2022/03/26 00:16:45;;;;;;;11.67;8.00;;;9.40;99.90;;;;;;5011546;28;20176;-71
2022/03/26 00:19:10;;;;;;;11.47;7.77;;;9.60;99.90;;;;;;5011429;28;20219;-73
2022/03/26 00:21:36;;;;;;;12.27;7.50;;;9.70;99.90;;;;;;5011199;28;20330;-71
2022/03/26 00:24:01;;;;;;;12.67;8.60;;;9.70;99.90;;;;;;5011298;28;20176;-71
2022/03/26 00:26:27;;;;;;;12.97;8.70;;;9.80;99.90;;;;;;5011431;28;20192;-73
2022/03/26 00:28:52;;;;;;;10.57;7.33;;;9.70;99.90;;;;;;5011231;28;20200;-71
2022/03/26 00:31:18;;;;;;;12.87;7.00;;;9.80;99.90;;;;;;5011543;28;20168;-72
2022/03/26 00:33:43;;;;;;;14.17;7.63;;;9.80;99.90;;;;;;5011323;28;20189;-72
2022/03/26 00:36:09;;;;;;;12.30;6.90;;;9.80;99.90;;;;;;5011310;28;20180;-72
2022/03/26 00:38:35;;;;;;;10.53;7.43;;;9.70;99.90;;;;;;5011487;28;20197;-72
2022/03/26 00:41:00;;;;;;;13.10;9.37;;;9.70;99.90;;;;;;5011388;28;20181;-72
2022/03/26 00:43:26;;;;;;;9.63;6.80;;;9.60;99.90;;;;;;5011347;28;20573;-72
2022/03/26 00:45:51;;;;;;;13.60;8.80;;;9.60;99.90;;;;;;5011043;28;20203;-72
2022/03/26 00:48:17;;;;;;;12.17;6.93;;;9.40;99.90;;;;;;5009974;28;20173;-70
2022/03/26 00:50:42;;;;;;;15.83;8.20;;;9.30;99.90;;;;;;5014502;28;20191;-70
2022/03/26 00:53:08;;;;;;;11.77;6.80;;;9.30;99.90;;;;;;5014569;28;20514;-71
2022/03/26 00:55:34;;;;;;;13.97;9.37;;;9.40;99.90;;;;;;5014580;28;20227;-71
2022/03/26 00:58:00;;;;;;;15.27;7.17;;;9.40;99.90;;;;;;5014777;28;20622;-71
2022/03/26 01:00:26;;;;;;;10.90;7.60;;;9.40;99.90;;;;;;5014445;28;20496;-71
2022/03/26 01:02:52;;;;;;;11.67;7.20;;;9.40;99.90;;;;;;5014525;28;20180;-71
2022/03/26 01:05:18;;;;;;;17.60;8.53;;;9.40;99.90;;;;;;5014432;28;20457;-72
2022/03/26 01:07:43;;;;;;;11.07;7.50;;;9.40;99.90;;;;;;5014515;28;20167;-72
2022/03/26 01:10:09;;;;;;;14.37;8.40;;;9.50;99.90;;;;;;5014324;28;20267;-72
2022/03/26 01:12:35;;;;;;;13.83;9.17;;;9.30;99.90;;;;;;5014500;28;20165;-73
2022/03/26 01:15:01;;;;;;;11.93;7.47;;;9.20;99.90;;;;;;5014472;28;20412;-72
2022/03/26 01:17:27;;;;;;;10.57;7.10;;;9.10;99.90;;;;;;5014275;28;20186;-71
2022/03/26 01:19:54;;;;;;;12.93;7.80;;;9.20;99.90;;;;;;5013914;28;20999;-71
2022/03/26 01:22:19;;;;;;;14.90;7.30;;;9.10;99.90;;;;;;5014240;28;20502;-72
2022/03/26 01:24:45;;;;;;;14.63;8.50;;;9.10;99.90;;;;;;5013894;28;20495;-71
2022/03/26 01:27:10;;;;;;;14.07;7.47;;;9.00;99.90;;;;;;5014197;28;20625;-72
2022/03/26 01:29:38;;;;;;;12.30;7.40;;;9.00;99.90;;;;;;5013805;28;20561;-72
2022/03/26 01:32:07;;;;;;;16.33;9.10;;;8.90;99.90;;;;;;5013949;28;20161;-72
2022/03/26 01:34:32;;;;;;;12.20;9.17;;;8.90;99.90;;;;;;5014109;28;20431;-73
2022/03/26 01:36:58;;;;;;;14.10;8.97;;;8.90;99.90;;;;;;5014004;28;20414;-72
2022/03/26 01:39:23;;;;;;;12.60;7.47;;;8.70;99.90;;;;;;5013972;28;20185;-72
2022/03/26 01:41:49;;;;;;;13.50;7.40;;;8.80;99.90;;;;;;5013939;28;20178;-73
2022/03/26 01:44:15;;;;;;;13.30;8.00;;;8.70;99.90;;;;;;5013768;28;20164;-72
2022/03/26 01:46:51;;;;;;;15.60;8.87;;;8.60;99.90;;;;;;5013721;28;20195;-72
2022/03/26 01:49:17;;;;;;;14.70;6.77;;;8.60;99.90;;;;;;5013769;28;20423;-73
2022/03/26 01:51:43;;;;;;;15.50;8.73;;;8.80;99.90;;;;;;5013576;28;20403;-72
2022/03/26 01:54:09;;;;;;;15.90;8.77;;;8.90;99.90;;;;;;5013617;28;20399;-73
2022/03/26 01:56:35;;;;;;;11.17;7.23;;;8.90;99.90;;;;;;5013419;28;20172;-72
2022/03/26 01:59:01;;;;;;;10.77;8.73;;;8.70;99.90;;;;;;5013179;28;21080;-72
2022/03/26 02:01:26;;;;;;;12.50;8.00;;;8.70;99.90;;;;;;5013078;28;20498;-71
2022/03/26 02:03:52;;;;;;;16.57;9.33;;;8.70;99.90;;;;;;5013225;28;20572;-72
2022/03/26 02:06:19;;;;;;;18.43;9.67;;;8.50;99.90;;;;;;5013094;28;20207;-72
2022/03/26 02:08:45;;;;;;;14.10;8.57;;;8.40;99.90;;;;;;5013598;28;20543;-72
2022/03/26 02:11:11;;;;;;;12.20;8.90;;;8.40;99.90;;;;;;5012970;28;20434;-72
2022/03/26 02:13:53;;;;;;;13.10;8.00;;;8.50;99.90;;;;;;5012956;28;20411;-72
2022/03/26 02:16:20;;;;;;;12.43;8.30;;;8.50;99.90;;;;;;5013231;28;20238;-72
2022/03/26 02:18:46;;;;;;;11.53;8.07;;;8.50;99.90;;;;;;5012887;28;20477;-73
2022/03/26 02:21:11;;;;;;;12.63;8.37;;;8.40;99.90;;;;;;5012926;28;20422;-73
2022/03/26 02:23:37;;;;;;;19.27;9.13;;;8.30;99.90;;;;;;5013055;28;20425;-71
2022/03/26 02:26:03;;;;;;;14.20;7.77;;;8.40;99.90;;;;;;5012784;28;20582;-72
2022/03/26 02:28:29;;;;;;;13.87;8.43;;;8.40;99.90;;;;;;5012855;28;20264;-71
2022/03/26 02:30:54;;;;;;;12.63;8.30;;;8.50;99.90;;;;;;5012978;28;20188;-72
2022/03/26 02:33:20;;;;;;;14.07;8.37;;;8.50;99.90;;;;;;5012811;28;20506;-72
2022/03/26 02:35:45;;;;;;;15.53;8.10;;;8.50;99.90;;;;;;5012746;28;20639;-72
2022/03/26 02:38:11;;;;;;;11.80;7.00;;;8.40;99.90;;;;;;5012672;28;20172;-72
2022/03/26 02:40:36;;;;;;;10.80;7.50;;;8.30;99.90;;;;;;5012632;28;20168;-72
2022/03/26 02:43:02;;;;;;;15.73;9.27;;;8.20;99.90;;;;;;5012400;28;20176;-71
2022/03/26 02:45:29;;;;;;;15.23;8.23;;;8.40;99.90;;;;;;5012320;28;20693;-71
2022/03/26 02:47:55;;;;;;;18.97;10.27;;;8.30;99.90;;;;;;5012557;28;20510;-73
2022/03/26 02:50:20;;;;;;;13.30;8.47;;;8.30;99.90;;;;;;5011262;28;20423;-72
2022/03/26 02:52:48;;;;;;;11.90;7.07;;;8.40;99.90;;;;;;5012352;28;20497;-71
2022/03/26 02:55:13;;;;;;;16.07;10.00;;;8.10;99.90;;;;;;5012282;28;20537;-72
2022/03/26 02:57:39;;;;;;;16.03;7.90;;;8.10;99.90;;;;;;5012288;28;20411;-71
2022/03/26 03:00:06;;;;;;;18.43;8.40;;;8.10;99.90;;;;;;5012225;28;20184;-71
2022/03/26 03:02:33;;;;;;;18.63;9.37;;;8.00;99.90;;;;;;5012263;28;20188;-72
2022/03/26 03:04:59;;;;;;;14.77;9.03;;;8.10;99.90;;;;;;5012019;28;20509;-71
2022/03/26 03:07:24;;;;;;;17.33;8.73;;;8.20;99.90;;;;;;5011873;28;20419;-71
2022/03/26 03:09:50;;;;;;;18.40;9.73;;;8.40;99.90;;;;;;5012015;28;20790;-71
2022/03/26 03:12:15;;;;;;;14.43;7.30;;;8.30;99.90;;;;;;5011414;28;20168;-71
2022/03/26 03:14:41;;;;;;;15.20;8.10;;;8.20;99.90;;;;;;5011922;28;20259;-71
2022/03/26 03:17:06;;;;;;;14.93;9.33;;;8.20;99.90;;;;;;5012393;28;20164;-72
2022/03/26 03:19:32;;;;;;;13.13;9.67;;;8.10;99.90;;;;;;5034288;23;20481;-69
2022/03/26 03:21:57;;;;;;;17.00;8.70;;;8.20;99.90;;;;;;5011998;28;20184;-70
2022/03/26 03:24:23;;;;;;;19.50;9.30;;;8.10;99.90;;;;;;5012245;28;20168;-69
2022/03/26 03:26:48;;;;;;;12.90;8.37;;;8.10;99.90;;;;;;5012198;28;20234;-70
2022/03/26 03:29:14;;;;;;;12.70;8.40;;;8.00;99.90;;;;;;5012290;28;20655;-69
2022/03/26 03:31:44;;;;;;;11.37;8.33;;;8.30;99.90;;;;;;5012017;28;20160;-70
2022/03/26 03:34:10;;;;;;;22.23;9.40;;;8.20;99.90;;;;;;5011925;28;20188;-69
2022/03/26 03:36:35;;;;;;;15.77;9.30;;;8.10;99.90;;;;;;5012070;28;20474;-69
2022/03/26 03:39:00;;;;;;;15.83;11.07;;;8.10;99.90;;;;;;5012421;28;20203;-68
2022/03/26 03:41:26;;;;;;;15.40;9.10;;;8.00;99.90;;;;;;5016216;28;20547;-69
2022/03/26 03:43:52;;;;;;;17.87;9.03;;;8.10;99.90;;;;;;5013963;28;20179;-69
2022/03/26 03:46:17;;;;;;;18.17;10.83;;;8.00;99.90;;;;;;5011964;28;20199;-69
2022/03/26 03:48:43;;;;;;;19.10;8.73;;;7.90;99.90;;;;;;5011812;28;20464;-69
2022/03/26 03:51:08;;;;;;;14.20;8.40;;;7.90;99.90;;;;;;5011902;28;20168;-69
2022/03/26 03:53:34;;;;;;;14.13;7.70;;;8.00;99.90;;;;;;5012252;28;20168;-69
2022/03/26 03:55:59;;;;;;;21.53;10.30;;;7.80;99.90;;;;;;5011729;28;20286;-68
2022/03/26 03:58:25;;;;;;;16.70;9.47;;;7.80;99.90;;;;;;5011908;28;20172;-69
2022/03/26 04:00:50;;;;;;;15.17;9.13;;;7.90;99.90;;;;;;5011813;28;20195;-69
2022/03/26 04:03:17;;;;;;;18.60;10.10;;;7.80;99.90;;;;;;5011585;28;20172;-69
2022/03/26 04:05:43;;;;;;;15.63;9.33;;;7.60;99.90;;;;;;5011845;28;20208;-69
2022/03/26 04:08:08;;;;;;;23.67;10.37;;;7.50;99.90;;;;;;5012126;28;20411;-70
2022/03/26 04:10:34;;;;;;;13.83;9.43;;;7.60;99.90;;;;;;5012051;28;20988;-71
2022/03/26 04:12:59;;;;;;;18.10;9.20;;;7.70;99.90;;;;;;5012083;28;20634;-69
2022/03/26 04:15:25;;;;;;;14.23;9.60;;;7.70;99.90;;;;;;5013388;28;20203;-69
2022/03/26 04:17:54;;;;;;;16.50;9.30;;;7.80;99.90;;;;;;5013076;28;20165;-69
2022/03/26 04:20:20;;;;;;;12.93;8.20;;;7.70;99.90;;;;;;5011516;28;20670;-69
2022/03/26 04:22:46;;;;;;;19.60;9.20;;;7.70;99.90;;;;;;5011614;28;20415;-69
2022/03/26 04:25:11;;;;;;;17.00;9.37;;;7.60;99.90;;;;;;5014591;28;20450;-68
2022/03/26 04:27:43;;;;;;;21.30;11.20;;;7.50;99.90;;;;;;4997783;28;20597;-69
2022/03/26 04:30:09;;;;;;;18.07;8.33;;;7.30;99.90;;;;;;5015301;28;20573;-69
2022/03/26 04:32:34;;;;;;;19.93;9.50;;;7.30;99.90;;;;;;5015032;28;20506;-69
2022/03/26 04:35:00;;;;;;;15.97;9.60;;;7.40;99.90;;;;;;5015199;28;20937;-69
2022/03/26 04:37:25;;;;;;;19.77;10.70;;;7.40;99.90;;;;;;5015154;28;20567;-69
2022/03/26 04:39:51;;;;;;;11.70;8.83;;;7.40;99.90;;;;;;5014880;28;20192;-69
2022/03/26 04:42:16;;;;;;;16.70;9.90;;;7.40;99.90;;;;;;5015075;28;20553;-68
2022/03/26 04:44:42;;;;;;;13.13;7.97;;;7.40;99.90;;;;;;5015076;28;20176;-68
2022/03/26 04:47:07;;;;;;;16.33;10.70;;;7.40;99.90;;;;;;5014714;28;20274;-68
2022/03/26 04:49:33;;;;;;;20.67;11.60;;;7.30;99.90;;;;;;5014938;28;20271;-68
2022/03/26 04:51:59;;;;;;;17.37;10.40;;;7.40;99.90;;;;;;5014884;28;20188;-69
2022/03/26 04:54:25;;;;;;;19.20;9.50;;;7.30;99.90;;;;;;5014770;28;20184;-68
2022/03/26 04:56:50;;;;;;;26.03;11.90;;;7.20;99.90;;;;;;5014744;28;20399;-68
2022/03/26 04:59:15;;;;;;;24.23;11.50;;;7.20;99.90;;;;;;4997025;28;20239;-68
2022/03/26 05:01:44;;;;;;;21.27;10.50;;;7.20;99.90;;;;;;5014521;28;20172;-69
2022/03/26 05:04:10;;;;;;;22.03;13.07;;;7.10;99.90;;;;;;5014828;28;20183;-69
2022/03/26 05:06:35;;;;;;;22.53;11.47;;;7.10;99.90;;;;;;5014598;28;20811;-69
2022/03/26 05:09:01;;;;;;;16.27;10.00;;;7.00;99.90;;;;;;5014504;28;20435;-70
2022/03/26 05:11:27;;;;;;;15.20;8.17;;;7.10;99.90;;;;;;5014497;28;20249;-69
2022/03/26 05:13:53;;;;;;;21.80;11.77;;;7.20;99.90;;;;;;5014564;28;20434;-69
2022/03/26 05:16:18;;;;;;;26.07;14.07;;;7.10;99.90;;;;;;5014333;28;20180;-69
2022/03/26 05:18:44;;;;;;;21.23;10.90;;;7.20;99.90;;;;;;5014629;28;20183;-71
2022/03/26 05:21:09;;;;;;;22.30;11.87;;;7.10;99.90;;;;;;5014692;28;20180;-70
2022/03/26 05:23:35;;;;;;;21.97;10.80;;;7.30;99.90;;;;;;5014374;28;20168;-70
2022/03/26 05:26:02;;;;;;;22.03;10.47;;;7.20;99.90;;;;;;5014214;28;20218;-68
2022/03/26 05:28:27;;;;;;;16.80;10.00;;;7.50;99.90;;;;;;5015442;28;20506;-69
2022/03/26 05:30:54;;;;;;;17.57;9.80;;;7.40;99.90;;;;;;5016317;28;20509;-69
2022/03/26 05:33:19;;;;;;;20.60;9.60;;;7.40;99.90;;;;;;5014368;28;20173;-70
2022/03/26 05:35:45;;;;;;;19.13;10.70;;;7.50;99.90;;;;;;5013609;28;20774;-70
2022/03/26 05:38:11;;;;;;;17.50;10.03;;;7.40;99.90;;;;;;5013988;28;20173;-70
2022/03/26 05:40:36;;;;;;;21.07;10.67;;;7.60;99.90;;;;;;5014006;28;20438;-70
2022/03/26 05:43:02;;;;;;;23.23;12.10;;;7.60;99.90;;;;;;5013880;28;20172;-70
2022/03/26 05:45:29;;;;;;;17.57;11.57;;;7.60;99.90;;;;;;5013591;28;20192;-68
2022/03/26 05:48:01;;;;;;;22.23;10.80;;;7.70;99.90;;;;;;5013977;28;20411;-68
2022/03/26 05:50:27;;;;;;;21.30;9.93;;;7.80;99.90;;;;;;5013787;28;20779;-69
2022/03/26 05:52:53;;;;;;;17.23;10.30;;;7.80;99.90;;;;;;5013471;28;20776;-69
2022/03/26 05:55:18;;;;;;;22.97;14.20;;;7.80;99.90;;;;;;5013681;28;20423;-69
2022/03/26 05:57:44;;;;;;;15.60;9.10;;;8.10;99.90;;;;;;5013632;28;20611;-69
2022/03/26 06:00:11;;;;;;;16.80;10.43;;;8.30;99.90;;;;;;5013528;28;20208;-69
2022/03/26 06:02:36;;;;;;;16.77;10.10;;;8.60;99.90;;;;;;5014014;28;20417;-70
2022/03/26 06:05:04;;;;;;;15.90;9.60;;;8.80;99.90;;;;;;5013567;28;20411;-69
2022/03/26 06:07:29;;;;;;;18.80;10.20;;;9.20;99.90;;;;;;5013762;28;20403;-70
2022/03/26 06:09:55;;;;;;;18.20;11.00;;;9.80;99.90;;;;;;5013684;28;20430;-70
2022/03/26 06:12:20;;;;;;;18.77;9.90;;;10.20;99.90;;;;;;5013589;28;20172;-70
2022/03/26 06:14:46;;;;;;;17.97;9.90;;;10.80;99.90;;;;;;5013661;28;20175;-70
2022/03/26 06:17:11;;;;;;;22.17;11.70;;;10.30;99.90;;;;;;5013945;28;20172;-70
2022/03/26 06:19:38;;;;;;;17.93;9.93;;;9.90;99.90;;;;;;5014135;28;20554;-69
2022/03/26 06:22:04;;;;;;;16.67;10.00;;;10.00;99.90;;;;;;5014118;28;20204;-70
2022/03/26 06:24:30;;;;;;;17.43;9.17;;;10.50;99.90;;;;;;5013834;28;20399;-70
2022/03/26 06:26:55;;;;;;;18.50;10.13;;;10.60;99.90;;;;;;5013289;28;20525;-70
2022/03/26 06:29:21;;;;;;;13.87;9.10;;;10.70;99.90;;;;;;5012958;28;20549;-70
2022/03/26 06:31:46;;;;;;;16.70;10.87;;;10.60;99.90;;;;;;5014064;28;20192;-70
2022/03/26 06:34:12;;;;;;;18.40;10.70;;;10.60;99.90;;;;;;5013149;28;20721;-69
2022/03/26 06:36:39;;;;;;;20.13;10.47;;;11.20;99.90;;;;;;5012891;28;20528;-70
2022/03/26 06:39:09;;;;;;;25.77;12.13;;;12.30;99.90;;;;;;5012976;28;20322;-70
2022/03/26 06:41:38;;;;;;;16.70;10.80;;;13.00;99.90;;;;;;5012745;28;20826;-69
2022/03/26 06:44:09;;;;;;;20.10;10.40;;;11.40;99.90;;;;;;5013135;28;20449;-71
2022/03/26 06:46:35;;;;;;;20.23;10.00;;;12.00;99.90;;;;;;5012021;28;20469;-69
2022/03/26 06:49:02;;;;;;;20.93;10.83;;;10.80;99.90;;;;;;5012715;28;20913;-70
2022/03/26 06:51:27;;;;;;;17.33;10.10;;;11.80;99.90;;;;;;5012683;28;20403;-69
2022/03/26 06:53:53;;;;;;;18.33;9.90;;;12.10;99.90;;;;;;5012680;28;20400;-69
2022/03/26 06:56:18;;;;;;;19.80;10.57;;;12.90;99.90;;;;;;5012407;28;20256;-69
2022/03/26 06:58:44;;;;;;;20.97;11.20;;;12.90;99.90;;;;;;5012865;28;20176;-69
2022/03/26 07:01:10;;;;;;;23.20;12.20;;;13.80;99.90;;;;;;5013540;28;20172;-69
2022/03/26 07:03:36;;;;;;;18.00;9.47;;;12.10;99.90;;;;;;5012357;28;20250;-69
2022/03/26 07:06:01;;;;;;;16.10;10.40;;;12.10;99.90;;;;;;5012339;28;20447;-69
2022/03/26 07:08:27;;;;;;;15.07;11.20;;;12.50;99.90;;;;;;5012510;28;20180;-70
2022/03/26 07:10:52;;;;;;;18.20;11.77;;;13.10;99.90;;;;;;5012269;28;20198;-70
2022/03/26 07:13:18;;;;;;;15.33;10.90;;;12.90;99.90;;;;;;5012604;28;20165;-70
2022/03/26 07:15:44;;;;;;;16.73;10.20;;;12.60;99.90;;;;;;5013395;28;20166;-70
2022/03/26 07:18:09;;;;;;;18.43;11.10;;;12.20;99.90;;;;;;5015704;28;20202;-69
2022/03/26 07:20:35;;;;;;;19.90;10.57;;;13.20;99.90;;;;;;5012390;28;20579;-70
2022/03/26 07:23:01;;;;;;;16.73;10.43;;;13.70;99.90;;;;;;5012117;28;20254;-70
2022/03/26 07:25:26;;;;;;;17.03;9.80;;;13.50;99.90;;;;;;5011770;28;20231;-70
2022/03/26 07:27:52;;;;;;;19.47;11.60;;;13.90;99.90;;;;;;5012567;28;20168;-69
2022/03/26 07:30:18;;;;;;;15.87;11.40;;;13.30;99.90;;;;;;5012344;28;20555;-69
2022/03/26 07:32:43;;;;;;;21.83;11.27;;;12.50;99.90;;;;;;5012570;28;20620;-69
2022/03/26 07:35:09;;;;;;;21.20;12.53;;;12.70;99.90;;;;;;5013678;28;20401;-70
2022/03/26 07:37:35;;;;;;;18.77;10.90;;;13.00;99.90;;;;;;5014322;28;20226;-71
2022/03/26 07:40:00;;;;;;;14.20;10.10;;;12.70;99.90;;;;;;5012811;28;20477;-69
2022/03/26 07:42:27;;;;;;;17.83;10.50;;;13.60;99.90;;;;;;5012155;28;20175;-69
2022/03/26 07:44:53;;;;;;;14.53;9.47;;;15.00;99.90;;;;;;5011997;28;20187;-69
2022/03/26 07:47:18;;;;;;;13.27;9.33;;;13.70;99.90;;;;;;5011983;28;20460;-69
2022/03/26 07:49:44;;;;;;;20.20;12.87;;;13.90;99.90;;;;;;5012357;28;20432;-69
2022/03/26 07:52:10;;;;;;;15.00;10.07;;;13.00;99.90;;;;;;5012363;28;20163;-69
2022/03/26 07:54:35;;;;;;;19.23;10.70;;;13.40;99.90;;;;;;5011776;28;20208;-69
2022/03/26 07:57:01;;;;;;;21.50;11.90;;;13.40;99.90;;;;;;5012366;28;20200;-71
2022/03/26 07:59:26;;;;;;;11.70;8.97;;;14.20;99.90;;;;;;5015522;28;20629;-69
2022/03/26 08:01:52;;;;;;;14.17;9.80;;;14.70;99.90;;;;;;5015800;28;20165;-70
2022/03/26 08:04:17;;;;;;;18.07;11.00;;;15.10;99.90;;;;;;5015755;28;20169;-69
2022/03/26 08:06:43;;;;;;;15.27;8.70;;;14.50;99.90;;;;;;5015511;28;20290;-72
2022/03/26 08:09:08;;;;;;;14.70;9.10;;;14.30;99.90;;;;;;5015914;28;20191;-70
2022/03/26 08:11:34;;;;;;;14.63;8.50;;;14.00;99.90;;;;;;5015675;28;20177;-69
2022/03/26 08:14:00;;;;;;;15.43;9.63;;;14.00;99.90;;;;;;5015949;28;20260;-69
2022/03/26 08:16:25;;;;;;;13.83;9.60;;;14.60;99.90;;;;;;5015474;28;20491;-69
2022/03/26 08:18:51;;;;;;;15.87;10.90;;;15.30;99.90;;;;;;5015365;28;20216;-69
2022/03/26 08:21:17;;;;;;;13.00;9.40;;;15.20;99.90;;;;;;5015384;28;20233;-69
2022/03/26 08:23:43;;;;;;;13.20;8.83;;;15.50;99.90;;;;;;5015270;28;20557;-69
2022/03/26 08:26:22;;;;;;;15.90;9.30;;;15.20;99.90;;;;;;5015032;28;20453;-69
2022/03/26 08:28:52;;;;;;;13.60;8.17;;;15.60;99.90;;;;;;5015266;28;20167;-69
2022/03/26 08:31:18;;;;;;;16.60;9.43;;;15.30;99.90;;;;;;5015105;28;20943;-69
2022/03/26 08:33:45;;;;;;;12.77;8.40;;;14.70;99.90;;;;;;5014915;28;20404;-70
2022/03/26 08:36:11;;;;;;;12.50;8.23;;;14.40;99.90;;;;;;5014930;28;20413;-70
2022/03/26 08:38:37;;;;;;;13.10;8.40;;;15.00;99.90;;;;;;5015178;28;20424;-68
2022/03/26 08:41:03;;;;;;;11.60;7.80;;;15.80;99.90;;;;;;5015278;28;20540;-68
2022/03/26 08:43:29;;;;;;;11.80;8.17;;;15.20;99.90;;;;;;5015087;28;20177;-69
2022/03/26 08:45:55;;;;;;;11.90;7.77;;;15.20;99.90;;;;;;5014940;28;20479;-69
2022/03/26 08:48:20;;;;;;;13.37;9.50;;;14.80;99.90;;;;;;5015059;28;20171;-71
2022/03/26 08:50:46;;;;;;;14.17;7.43;;;14.90;99.90;;;;;;5014745;28;20195;-69
2022/03/26 08:53:11;;;;;;;11.20;8.10;;;14.20;99.90;;;;;;5015038;28;20167;-70
2022/03/26 08:55:37;;;;;;;15.40;9.00;;;14.50;99.90;;;;;;5015315;28;20640;-69
2022/03/26 08:58:03;;;;;;;15.47;7.60;;;14.50;99.90;;;;;;5015159;28;20635;-69
2022/03/26 09:00:28;;;;;;;10.43;9.27;;;14.30;99.90;;;;;;5015141;28;20196;-69
2022/03/26 09:02:54;;;;;;;13.60;7.63;;;14.60;99.90;;;;;;5015128;28;20300;-69
2022/03/26 09:05:20;;;;;;;13.57;7.57;;;14.40;99.90;;;;;;5019051;28;20213;-69
2022/03/26 09:07:45;;;;;;;9.13;7.23;;;15.10;99.90;;;;;;4998788;28;20421;-69
2022/03/26 09:10:11;;;;;;;11.17;7.23;;;15.60;99.90;;;;;;5013660;28;20554;-69
2022/03/26 09:12:37;;;;;;;9.73;6.70;;;15.90;99.90;;;;;;5014357;28;20246;-69
2022/03/26 09:15:06;;;;;;;12.63;6.33;;;15.90;99.90;;;;;;5014291;28;20179;-69
2022/03/26 09:17:31;;;;;;;12.10;6.60;;;16.40;99.90;;;;;;5014549;28;20407;-69
2022/03/26 09:19:57;;;;;;;9.40;7.50;;;15.80;99.90;;;;;;5027846;23;20526;-69
2022/03/26 09:22:23;;;;;;;9.47;6.50;;;15.80;99.90;;;;;;4994592;28;20539;-70
2022/03/26 09:24:49;;;;;;;7.97;5.63;;;15.70;99.90;;;;;;4994561;28;20214;-69
2022/03/26 09:27:14;;;;;;;10.43;5.93;;;16.10;99.90;;;;;;4994609;28;20481;-69
2022/03/26 09:29:40;;;;;;;11.63;6.20;;;16.00;99.90;;;;;;4994935;28;20183;-70
2022/03/26 09:32:05;;;;;;;7.43;4.97;;;15.20;99.90;;;;;;4994632;28;20640;-71
2022/03/26 09:34:31;;;;;;;12.07;6.80;;;14.90;99.90;;;;;;4994548;28;20556;-71
2022/03/26 09:36:56;;;;;;;9.23;6.30;;;14.90;99.90;;;;;;4994677;28;20174;-71
2022/03/26 09:39:22;;;;;;;10.13;6.10;;;14.90;99.90;;;;;;4994455;28;20207;-70
2022/03/26 09:41:48;;;;;;;10.17;6.17;;;14.90;99.90;;;;;;4994232;28;20640;-70
2022/03/26 09:44:13;;;;;;;8.47;6.10;;;14.70;99.90;;;;;;4994331;28;20170;-70
2022/03/26 09:46:39;;;;;;;10.67;7.00;;;14.60;99.90;;;;;;4994039;28;20542;-70
2022/03/26 09:49:06;;;;;;;12.87;7.30;;;14.40;99.90;;;;;;4993922;28;20165;-70
2022/03/26 09:51:32;;;;;;;12.30;6.00;;;14.30;99.90;;;;;;4994017;28;20431;-70
2022/03/26 09:53:58;;;;;;;9.07;6.67;;;13.90;99.90;;;;;;4993838;28;20882;-70
2022/03/26 09:56:25;;;;;;;13.83;7.00;;;14.00;99.90;;;;;;4994122;28;20421;-70
2022/03/26 09:58:52;;;;;;;12.23;7.47;;;13.60;99.90;;;;;;4993923;28;20247;-70
2022/03/26 10:01:18;;;;;;;8.60;6.97;;;14.00;99.90;;;;;;4993590;28;20443;-70
2022/03/26 10:04:12;;;;;;;10.97;7.73;;;13.70;99.90;;;;;;4993757;28;20779;-70
2022/03/26 10:06:52;;;;;;;13.60;8.57;;;13.90;99.90;;;;;;4993425;28;20981;-70
2022/03/26 10:09:36;;;;;;;10.90;7.30;;;14.20;99.90;;;;;;4993769;28;20796;-70
2022/03/26 10:12:04;;;;;;;12.13;7.07;;;14.20;99.90;;;;;;4993446;28;20495;-71
2022/03/26 10:14:37;;;;;;;11.87;6.97;;;14.30;99.90;;;;;;4993408;28;20895;-70
2022/03/26 10:17:17;;;;;;;13.17;8.03;;;14.50;99.90;;;;;;4993403;28;20492;-70
2022/03/26 10:19:49;;;;;;;13.90;7.20;;;14.20;99.90;;;;;;4993493;28;20439;-70
2022/03/26 10:22:34;;;;;;;11.77;8.10;;;14.30;99.90;;;;;;4993804;28;20412;-70
2022/03/26 10:25:13;;;;;;;14.70;8.27;;;13.90;99.90;;;;;;4993346;28;20400;-70
2022/03/26 10:27:41;;;;;;;12.10;7.90;;;13.90;99.90;;;;;;4993661;28;20503;-70
2022/03/26 10:30:08;;;;;;;16.10;7.70;;;14.10;99.90;;;;;;4993438;28;20424;-71
2022/03/26 10:32:39;;;;;;;10.30;6.50;;;14.30;99.90;;;;;;4993430;28;20414;-72
2022/03/26 10:35:34;;;;;;;8.87;5.53;;;14.40;99.90;;;;;;4993563;28;20911;-70
2022/03/26 10:38:03;;;;;;;13.80;8.80;;;14.50;99.90;;;;;;4980931;28;20443;-70
2022/03/26 10:40:34;;;;;;;11.60;6.77;;;14.30;99.90;;;;;;4993356;28;20841;-69
2022/03/26 10:43:17;;;;;;;9.77;6.93;;;14.30;99.90;;;;;;4993305;28;20414;-70
2022/03/26 10:45:52;;;;;;;13.50;7.10;;;14.10;99.90;;;;;;4993358;28;21007;-70
2022/03/26 10:48:25;;;;;;;11.20;6.97;;;14.30;99.90;;;;;;4993367;28;20462;-70
2022/03/26 10:50:56;;;;;;;15.50;8.47;;;14.30;99.90;;;;;;4993070;28;20867;-70
2022/03/26 10:53:22;;;;;;;12.77;8.37;;;14.50;99.90;;;;;;4992946;28;20754;-70
2022/03/26 10:55:48;;;;;;;10.67;6.70;;;14.40;99.90;;;;;;4993016;28;20543;-71
2022/03/26 10:58:15;;;;;;;13.87;8.73;;;14.20;99.90;;;;;;4992782;28;20182;-70
2022/03/26 11:00:43;;;;;;;14.70;6.80;;;13.80;99.90;;;;;;4992737;28;20922;-70
2022/03/26 11:03:09;;;;;;;15.63;8.13;;;13.90;99.90;;;;;;4992785;28;20451;-70
2022/03/26 11:05:34;;;;;;;13.57;8.87;;;13.80;99.90;;;;;;4992877;28;20452;-70
2022/03/26 11:08:01;;;;;;;18.37;7.73;;;13.80;99.90;;;;;;4992778;28;20428;-70
2022/03/26 11:10:30;;;;;;;15.10;10.73;;;13.70;99.90;;;;;;4992526;28;20225;-70
2022/03/26 11:12:58;;;;;;;16.50;9.50;;;14.00;99.90;;;;;;4992600;28;20478;-70
2022/03/26 11:15:34;;;;;;;12.97;9.40;;;13.50;99.90;;;;;;4992360;28;20424;-70
2022/03/26 11:18:19;;;;;;;14.37;8.37;;;13.70;99.90;;;;;;4992479;28;20961;-69
2022/03/26 11:21:32;;;;;;;15.13;8.20;;;13.80;99.90;;;;;;4992385;28;20443;-70
2022/03/26 11:23:58;;;;;;;11.57;7.30;;;14.00;99.90;;;;;;4992958;28;20997;-69
2022/03/26 11:27:01;;;;;;;19.50;9.67;;;14.00;99.90;;;;;;4992856;28;20543;-70
2022/03/26 11:30:08;;;;;;;12.17;8.37;;;14.30;99.90;;;;;;4992254;28;20561;-71
2022/03/26 11:32:43;;;;;;;14.07;8.73;;;14.30;99.90;;;;;;4992301;28;20404;-71
2022/03/26 11:35:19;;;;;;;15.60;7.93;;;14.30;99.90;;;;;;4992486;28;20410;-71
2022/03/26 11:37:56;;;;;;;15.70;9.17;;;14.10;99.90;;;;;;4992628;28;20400;-70
2022/03/26 11:40:53;;;;;;;14.23;8.43;;;14.30;99.90;;;;;;4992364;28;20769;-71
2022/03/26 11:43:39;;;;;;;18.17;9.00;;;14.60;99.90;;;;;;4993188;28;20420;-70
2022/03/26 11:51:37;;;;;;;14.77;8.60;;;14.80;99.90;;;;;;4992454;28;20416;-70
2022/03/26 11:54:12;;;;;;;15.07;9.20;;;14.90;99.90;;;;;;4992372;28;20405;-70
2022/03/26 11:56:38;;;;;;;14.27;9.63;;;14.70;99.90;;;;;;4992498;28;20503;-70
2022/03/26 11:59:06;;;;;;;13.50;8.90;;;15.00;99.90;;;;;;4990753;28;20503;-70
2022/03/26 12:01:36;;;;;;;16.10;9.37;;;14.70;99.90;;;;;;4992278;28;20236;-72
2022/03/26 12:04:15;;;;;;;20.10;8.87;;;14.80;99.90;;;;;;4992454;28;20409;-71
2022/03/26 12:06:46;;;;;;;14.50;8.87;;;14.80;99.90;;;;;;4992043;28;20448;-71
2022/03/26 12:09:31;;;;;;;22.23;9.53;;;14.50;99.90;;;;;;4992370;28;20499;-71
2022/03/26 12:12:06;;;;;;;16.00;11.50;;;14.60;99.90;;;;;;4992269;28;20921;-70
2022/03/26 12:14:35;;;;;;;14.37;9.20;;;14.60;99.90;;;;;;4992046;28;20487;-71
2022/03/26 12:17:05;;;;;;;19.60;10.80;;;14.50;99.90;;;;;;4991944;28;20961;-70
2022/03/26 12:19:50;;;;;;;16.47;9.87;;;14.30;99.90;;;;;;4991954;28;20444;-70
2022/03/26 12:22:26;;;;;;;16.70;10.10;;;14.30;99.90;;;;;;4992050;28;20832;-70
2022/03/26 12:24:54;;;;;;;19.70;10.30;;;14.40;99.90;;;;;;4991935;28;20917;-71
2022/03/26 12:27:21;;;;;;;19.13;10.57;;;14.00;99.90;;;;;;4992234;28;20452;-70
2022/03/26 12:29:47;;;;;;;17.63;10.00;;;14.30;99.90;;;;;;4991853;28;20467;-70
2022/03/26 12:32:13;;;;;;;19.67;9.47;;;14.40;99.90;;;;;;4991588;28;20444;-70
2022/03/26 12:34:53;;;;;;;20.63;10.00;;;14.40;99.90;;;;;;4991681;28;20564;-70
2022/03/26 12:37:19;;;;;;;13.57;9.43;;;14.10;99.90;;;;;;4991800;28;20626;-70
2022/03/26 12:39:45;;;;;;;21.73;10.20;;;13.70;99.90;;;;;;4991638;28;20861;-71
2022/03/26 12:42:11;;;;;;;19.20;10.77;;;13.70;99.90;;;;;;4991444;28;20173;-70
2022/03/26 12:44:37;;;;;;;16.87;9.40;;;13.60;99.90;;;;;;4992080;28;20830;-71
2022/03/26 12:47:03;;;;;;;18.83;10.83;;;13.90;99.90;;;;;;4995267;28;20444;-71
2022/03/26 12:49:34;;;;;;;15.20;10.07;;;13.60;99.90;;;;;;4995332;28;20804;-70